Terminal Aerodrome Forecast
Issued by NWS Buffalo, NY

Home | Current Version | Previous Version | Text Only | Print | Product List | Glossary On
Versions: 1 2 3 4 5 6 7 8 9 10 11 12 13 14 15 16 17 18 19 20 21 22 23 24 25 26 27 28
853
FTUS41 KBUF 222340
TAFROC
TAF
KROC 222340Z 2300/2324 12004KT 3SM BR BKN002 WS010/19040KT
     FM230200 17008KT P6SM VCSH SCT035 BKN050 WS010/20045KT
     FM230530 17010KT 6SM -RA OVC035 WS015/19045KT
      TEMPO 2306/2310 4SM -RA BR BKN025
     FM231000 19008KT P6SM VCSH OVC045 WS015/21040KT
     FM231300 20008KT P6SM SCT045 BKN100
     FM231700 24015G25KT P6SM OVC045
     FM232000 25018G34KT 6SM -RA BKN035=

USA.gov is the U.S. government's official web portal to all federal, state and local government web resources and services.